createdAt,value
2022-10-15T00:07:31.013Z,11.76
2022-10-15T00:18:30.512Z,11.56
2022-10-15T00:29:32.525Z,11.43
2022-10-15T00:40:34.901Z,11.26
2022-10-15T00:51:31.746Z,10.95
2022-10-15T01:02:35.050Z,10.87
2022-10-15T01:13:37.154Z,10.92
2022-10-15T01:24:36.406Z,10.85
2022-10-15T01:35:37.519Z,10.92
2022-10-15T01:46:15.146Z,10.98
2022-10-15T01:56:53.697Z,10.99
2022-10-15T02:07:51.964Z,11.06
2022-10-15T02:18:55.047Z,11.10
2022-10-15T02:29:56.393Z,11.29
2022-10-15T02:40:57.836Z,11.32
2022-10-15T02:51:37.813Z,11.36
2022-10-15T03:02:19.315Z,11.32
2022-10-15T03:13:19.942Z,11.49
2022-10-15T03:23:58.546Z,11.51
2022-10-15T03:34:38.240Z,11.42
2022-10-15T03:45:41.281Z,11.26
2022-10-15T03:56:44.488Z,11.41
2022-10-15T04:07:48.252Z,11.42
2022-10-15T04:18:50.499Z,11.36
2022-10-15T04:29:54.495Z,11.51
2022-10-15T04:40:58.237Z,11.59
2022-10-15T04:51:56.474Z,11.60
2022-10-15T05:03:00.168Z,11.64
2022-10-15T05:14:02.308Z,11.79
2022-10-15T05:25:06.364Z,11.74
2022-10-15T05:36:09.916Z,11.75
2022-10-15T05:47:09.585Z,11.90
2022-10-15T05:58:11.643Z,12.05
2022-10-15T06:09:15.251Z,12.18
2022-10-15T06:20:16.981Z,12.30
2022-10-15T06:31:15.026Z,12.51
2022-10-15T06:42:17.569Z,12.70
2022-10-15T06:53:20.516Z,12.79
2022-10-15T07:04:23.227Z,12.99
2022-10-15T07:15:22.881Z,13.11
2022-10-15T07:25:59.982Z,13.22
2022-10-15T07:37:00.837Z,13.28
2022-10-15T07:47:54.887Z,13.33
2022-10-15T07:58:42.826Z,13.27
2022-10-15T08:09:40.346Z,13.37
2022-10-15T08:20:22.432Z,13.58
2022-10-15T08:31:10.443Z,13.81
2022-10-15T08:41:47.993Z,13.81
2022-10-15T08:52:49.915Z,13.86
2022-10-15T09:03:46.598Z,14.11
2022-10-15T09:14:48.454Z,14.41
2022-10-15T09:25:48.849Z,14.98
2022-10-15T09:36:50.282Z,15.03
2022-10-15T09:47:39.773Z,15.45
2022-10-15T09:58:15.732Z,15.41
2022-10-15T10:09:10.393Z,15.94
2022-10-15T10:20:10.930Z,15.97
2022-10-15T10:31:03.368Z,16.18
2022-10-15T10:41:39.114Z,16.38
2022-10-15T10:52:38.222Z,16.50
2022-10-15T11:03:38.182Z,16.60
2022-10-15T11:14:11.875Z,16.70
2022-10-15T11:25:10.132Z,16.67
2022-10-15T11:36:08.566Z,16.41
2022-10-15T11:46:50.330Z,16.59
2022-10-15T11:57:39.819Z,16.50
2022-10-15T12:08:14.099Z,16.62
2022-10-15T12:19:13.276Z,16.38
2022-10-15T12:30:13.197Z,16.77
2022-10-15T12:41:08.251Z,16.56
2022-10-15T12:52:09.770Z,16.82
2022-10-15T13:03:10.944Z,17.25
2022-10-15T13:14:09.044Z,17.57
2022-10-15T13:25:09.581Z,17.44
2022-10-15T13:36:08.040Z,17.46
2022-10-15T13:47:08.335Z,17.46
2022-10-15T13:58:07.256Z,17.29
2022-10-15T14:09:06.803Z,17.54
2022-10-15T14:20:26.375Z,17.15
2022-10-15T14:31:08.391Z,17.33
2022-10-15T14:42:08.339Z,16.82
2022-10-15T14:53:07.963Z,16.67
2022-10-15T15:04:05.451Z,17.00
2022-10-15T15:15:05.237Z,16.77
2022-10-15T15:26:03.155Z,16.04
2022-10-15T15:36:57.960Z,15.97
2022-10-15T15:47:57.522Z,15.64
2022-10-15T15:58:56.398Z,15.33
2022-10-15T16:09:29.999Z,15.16
2022-10-15T16:20:29.388Z,14.85
2022-10-15T16:31:10.549Z,14.53
2022-10-15T16:42:11.224Z,14.14
2022-10-15T16:52:45.598Z,13.87
2022-10-15T17:03:24.782Z,13.73
2022-10-15T17:14:03.903Z,13.59
2022-10-15T17:24:52.657Z,13.50
2022-10-15T17:35:47.053Z,13.29
2022-10-15T17:46:41.918Z,13.28
2022-10-15T17:57:40.788Z,13.06
2022-10-15T18:08:16.348Z,12.96
2022-10-15T18:18:52.229Z,12.86
2022-10-15T18:29:30.769Z,12.91
2022-10-15T18:40:26.379Z,12.81
2022-10-15T18:51:24.277Z,12.79
2022-10-15T19:02:00.637Z,12.69
2022-10-15T19:12:43.676Z,12.67
2022-10-15T19:23:42.988Z,12.81
2022-10-15T19:34:41.655Z,12.82
2022-10-15T19:45:42.076Z,12.81
2022-10-15T19:56:41.778Z,12.78
2022-10-15T20:07:34.904Z,12.59
2022-10-15T20:18:35.360Z,12.51
2022-10-15T20:29:24.529Z,12.30
2022-10-15T20:40:24.935Z,12.09
2022-10-15T20:51:21.408Z,12.00
2022-10-15T21:02:20.608Z,12.05
2022-10-15T21:13:18.137Z,12.16
2022-10-15T21:24:17.935Z,12.28
2022-10-15T21:35:17.526Z,12.28
2022-10-15T21:46:13.768Z,12.30
2022-10-15T21:57:11.992Z,12.36
2022-10-15T22:08:13.538Z,12.13
2022-10-15T22:19:11.617Z,11.97
2022-10-15T22:30:13.037Z,11.84
2022-10-15T22:41:11.985Z,11.74
2022-10-15T22:52:10.663Z,11.69
2022-10-15T23:03:10.104Z,11.65
2022-10-15T23:14:11.412Z,11.57
2022-10-15T23:25:11.160Z,11.49
2022-10-15T23:36:05.399Z,11.46
2022-10-15T23:47:06.145Z,11.49
2022-10-15T23:58:07.027Z,11.64
